Time;durP1;ratioP1;P1;durP2;ratioP2;P2;SDS_P1;SDS_P2;PMS_P1;PMS_P2;Temp;Humidity;BMP_temperature;BMP_pressure;BME280_temperature;BME280_humidity;BME280_pressure;Samples;Min_cycle;Max_cycle;Signal;HPM_P1;HPM_P2
2022/07/23 00:00:07;;;;;;;7.50;4.00;;;;;;;22.45;95.46;101769.66;7393965;19;20022;-46
2022/07/23 00:02:36;;;;;;;6.72;3.70;;;;;;;22.43;95.15;101776.94;7395047;19;20026;-46
2022/07/23 00:05:06;;;;;;;7.40;4.03;;;;;;;22.50;94.90;101769.31;7393311;19;20018;-47
2022/07/23 00:07:35;;;;;;;6.35;4.13;;;;;;;22.33;95.48;101767.97;7392470;19;20010;-47
2022/07/23 00:10:04;;;;;;;6.53;3.80;;;;;;;22.25;95.43;101779.22;7390396;19;20093;-49
2022/07/23 00:12:33;;;;;;;6.63;4.30;;;;;;;22.21;95.86;101775.94;7392911;19;20021;-47
2022/07/23 00:15:02;;;;;;;11.05;4.90;;;;;;;22.20;95.86;101771.56;7392223;19;20021;-46
2022/07/23 00:17:33;;;;;;;6.40;4.53;;;;;;;22.20;97.63;101776.91;7393624;19;20014;-51
2022/07/23 00:20:02;;;;;;;7.22;4.55;;;;;;;22.19;97.70;101774.38;7393499;19;20018;-47
2022/07/23 00:22:31;;;;;;;8.75;4.18;;;;;;;22.17;98.18;101779.81;7393035;19;20015;-46
2022/07/23 00:25:00;;;;;;;6.85;4.13;;;;;;;22.11;96.96;101766.97;7395128;19;20355;-46
2022/07/23 00:27:29;;;;;;;7.13;4.32;;;;;;;22.17;98.90;101771.81;7392369;19;20022;-48
2022/07/23 00:29:58;;;;;;;5.78;4.00;;;;;;;22.14;98.31;101764.06;7388504;19;20548;-48
2022/07/23 00:32:27;;;;;;;7.03;4.15;;;;;;;22.08;97.04;101764.56;7390249;19;20014;-51
2022/07/23 00:34:58;;;;;;;6.95;4.38;;;;;;;22.02;98.21;101757.88;7388905;19;20018;-51
2022/07/23 00:37:27;;;;;;;8.30;4.60;;;;;;;22.03;97.80;101759.53;7391477;19;20011;-45
2022/07/23 00:39:56;;;;;;;6.45;4.10;;;;;;;21.96;97.16;101763.66;7392909;19;20422;-45
2022/07/23 00:42:25;;;;;;;7.05;4.63;;;;;;;21.91;97.92;101763.19;7392236;19;20025;-48
2022/07/23 00:44:54;;;;;;;7.13;4.25;;;;;;;21.92;100.00;101770.19;7390510;19;20372;-46
2022/07/23 00:47:22;;;;;;;7.32;4.40;;;;;;;21.95;99.98;101754.81;7391955;19;20018;-47
2022/07/23 00:49:51;;;;;;;6.20;4.80;;;;;;;21.97;100.00;101757.38;7389148;19;20493;-48
2022/07/23 00:52:23;;;;;;;9.68;4.68;;;;;;;21.92;100.00;101756.88;7391352;19;20014;-48
2022/07/23 00:54:52;;;;;;;5.35;4.00;;;;;;;21.84;100.00;101759.28;7392333;19;20038;-52
2022/07/23 00:57:21;;;;;;;7.70;5.38;;;;;;;21.78;100.00;101748.13;7391882;19;20015;-47
2022/07/23 00:59:50;;;;;;;7.53;4.70;;;;;;;21.74;100.00;101754.66;7389872;19;20021;-48
2022/07/23 01:02:20;;;;;;;10.35;6.28;;;;;;;21.74;100.00;101757.31;7389380;19;20096;-48
2022/07/23 01:04:49;;;;;;;9.40;5.35;;;;;;;21.75;100.00;101752.84;7387995;19;20538;-48
2022/07/23 01:07:19;;;;;;;8.30;5.53;;;;;;;21.71;100.00;101749.56;7390946;19;20015;-47
2022/07/23 01:09:52;;;;;;;7.05;4.68;;;;;;;21.64;100.00;101745.66;7389567;19;20026;-48
2022/07/23 01:12:21;;;;;;;7.90;4.60;;;;;;;21.64;100.00;101760.81;7392257;19;20102;-46
2022/07/23 01:14:56;;;;;;;5.22;4.45;;;;;;;21.63;100.00;101751.13;7388073;19;20010;-47
2022/07/23 01:17:25;;;;;;;11.13;5.20;;;;;;;21.55;100.00;101746.34;7392349;19;20018;-46
2022/07/23 01:19:55;;;;;;;8.07;5.18;;;;;;;21.46;100.00;101741.69;7386918;19;20014;-52
2022/07/23 01:22:25;;;;;;;6.82;4.55;;;;;;;21.49;100.00;101745.00;7390412;19;20487;-48
2022/07/23 01:24:57;;;;;;;7.30;5.20;;;;;;;21.41;100.00;101740.22;7388692;19;20026;-51
2022/07/23 01:27:28;;;;;;;8.38;4.68;;;;;;;21.41;100.00;101745.56;7389160;19;20032;-47
2022/07/23 01:30:03;;;;;;;9.10;4.93;;;;;;;21.47;100.00;101736.25;7390830;19;20019;-53
2022/07/23 01:32:32;;;;;;;7.75;5.35;;;;;;;21.41;100.00;101740.22;7390391;19;20357;-51
2022/07/23 01:35:01;;;;;;;8.35;4.68;;;;;;;21.37;100.00;101737.91;7387091;19;20014;-52
2022/07/23 01:37:30;;;;;;;7.43;4.75;;;;;;;21.36;100.00;101739.75;7390370;19;20082;-44
2022/07/23 01:40:01;;;;;;;10.45;4.95;;;;;;;21.37;100.00;101743.25;7390098;19;20014;-46
2022/07/23 01:42:30;;;;;;;10.52;5.07;;;;;;;21.39;100.00;101735.97;7388093;19;20018;-49
2022/07/23 01:45:00;;;;;;;10.18;4.65;;;;;;;21.29;100.00;101741.19;7388276;19;20019;-47
2022/07/23 01:47:29;;;;;;;5.95;4.68;;;;;;;21.26;100.00;101734.25;7394751;19;20031;-46
2022/07/23 01:49:58;;;;;;;7.75;4.70;;;;;;;21.22;100.00;101739.91;7393329;19;20510;-47
2022/07/23 01:52:44;;;;;;;7.13;5.00;;;;;;;21.23;100.00;101737.16;7396727;19;20025;-47
2022/07/23 01:55:15;;;;;;;6.53;4.70;;;;;;;21.29;100.00;101742.97;7396411;19;20033;-46
2022/07/23 01:57:46;;;;;;;7.65;4.88;;;;;;;21.22;100.00;101734.56;7396933;19;20010;-47
2022/07/23 02:00:16;;;;;;;6.63;4.40;;;;;;;21.19;100.00;101742.81;7394762;19;20015;-51
2022/07/23 02:02:50;;;;;;;6.63;4.40;;;;;;;21.30;100.00;101734.84;7397043;19;20018;-47
2022/07/23 02:05:19;;;;;;;6.82;4.50;;;;;;;21.20;100.00;101736.50;7395305;19;20022;-48
2022/07/23 02:07:48;;;;;;;9.25;4.15;;;;;;;21.16;100.00;101743.03;7392760;19;20014;-47
2022/07/23 02:10:20;;;;;;;8.18;4.43;;;;;;;21.11;100.00;101745.22;7394730;19;20014;-46
2022/07/23 02:12:49;;;;;;;7.75;4.28;;;;;;;21.11;100.00;101739.88;7395875;19;20026;-47
2022/07/23 02:15:18;;;;;;;6.55;4.18;;;;;;;21.16;100.00;101741.25;7395368;19;20339;-48
2022/07/23 02:17:47;;;;;;;6.85;4.47;;;;;;;21.22;100.00;101742.56;7394703;19;20010;-50
2022/07/23 02:20:15;;;;;;;6.75;4.80;;;;;;;21.20;100.00;101740.03;7398052;19;20029;-51
2022/07/23 02:22:46;;;;;;;6.80;4.35;;;;;;;21.14;97.97;101736.97;7399693;19;20011;-54
2022/07/23 02:25:15;;;;;;;9.15;3.90;;;;;;;21.07;100.00;101732.09;7399850;19;20022;-52
2022/07/23 02:27:47;;;;;;;8.25;4.38;;;;;;;21.12;100.00;101734.44;7398907;19;20214;-51
2022/07/23 02:30:16;;;;;;;11.40;5.05;;;;;;;21.11;100.00;101729.22;7395487;19;20015;-52
2022/07/23 02:32:45;;;;;;;7.22;4.45;;;;;;;21.04;99.91;101737.66;7398891;19;20026;-50
2022/07/23 02:35:14;;;;;;;8.55;4.90;;;;;;;21.02;100.00;101734.25;7399023;19;20029;-52
2022/07/23 02:37:43;;;;;;;10.85;4.60;;;;;;;21.02;100.00;101726.28;7397819;19;20045;-55
2022/07/23 02:40:13;;;;;;;7.00;4.50;;;;;;;20.89;99.50;101729.00;7397298;19;20471;-54
2022/07/23 02:42:47;;;;;;;10.05;4.30;;;;;;;20.91;100.00;101727.06;7396351;19;20019;-49
2022/07/23 02:45:16;;;;;;;7.55;4.22;;;;;;;20.91;100.00;101734.19;7395907;19;20112;-50
2022/07/23 02:47:45;;;;;;;6.57;3.72;;;;;;;20.95;100.00;101737.47;7398241;19;20022;-53
2022/07/23 02:50:14;;;;;;;6.55;3.88;;;;;;;20.94;100.00;101733.13;7393687;19;20062;-51
2022/07/23 02:52:44;;;;;;;7.28;4.20;;;;;;;20.98;100.00;101732.78;7396987;19;21480;-51
2022/07/23 02:55:13;;;;;;;8.90;4.10;;;;;;;21.01;100.00;101737.03;7394709;19;20372;-52
2022/07/23 02:57:42;;;;;;;8.57;3.80;;;;;;;20.99;100.00;101737.16;7395750;19;20117;-55
2022/07/23 03:00:15;;;;;;;7.05;3.95;;;;;;;20.96;100.00;101737.41;7394289;19;20014;-53
2022/07/23 03:02:43;;;;;;;7.63;3.55;;;;;;;20.97;100.00;101738.22;7396221;19;20019;-54
2022/07/23 03:05:13;;;;;;;8.18;3.97;;;;;;;21.01;100.00;101729.88;7391187;19;20030;-52
2022/07/23 03:07:42;;;;;;;9.57;3.88;;;;;;;21.06;100.00;101741.06;7397237;19;20030;-49
2022/07/23 03:10:11;;;;;;;5.72;4.13;;;;;;;21.06;100.00;101750.88;7394582;19;20461;-52
2022/07/23 03:12:40;;;;;;;8.50;3.63;;;;;;;21.03;100.00;101745.75;7396594;19;20026;-48
2022/07/23 03:15:11;;;;;;;8.38;4.15;;;;;;;20.96;100.00;101737.41;7398006;19;20403;-51
2022/07/23 03:17:42;;;;;;;7.07;3.63;;;;;;;20.97;98.95;101731.06;7395308;19;20019;-51
2022/07/23 03:20:12;;;;;;;6.03;3.60;;;;;;;20.97;100.00;101738.22;7394499;19;20077;-49
2022/07/23 03:22:41;;;;;;;9.88;3.70;;;;;;;20.94;99.08;101741.97;7396224;19;20392;-50
2022/07/23 03:25:12;;;;;;;6.60;3.47;;;;;;;20.91;99.86;101742.19;7393070;19;20011;-49
2022/07/23 03:27:41;;;;;;;6.97;3.80;;;;;;;20.92;100.00;101746.56;7395855;19;20379;-52
2022/07/23 03:30:12;;;;;;;8.40;3.85;;;;;;;20.90;100.00;101741.34;7395818;19;20015;-53
2022/07/23 03:32:44;;;;;;;6.78;3.55;;;;;;;20.92;100.00;101741.25;7394056;19;20029;-53
2022/07/23 03:35:13;;;;;;;6.85;3.28;;;;;;;20.94;100.00;101749.97;7394075;19;20461;-49
2022/07/23 03:37:51;;;;;;;4.63;3.45;;;;;;;20.89;99.69;101736.97;7395087;19;20033;-49
2022/07/23 03:40:20;;;;;;;5.32;2.97;;;;;;;20.93;100.00;101750.91;7393182;19;20022;-52
2022/07/23 03:42:49;;;;;;;8.77;4.22;;;;;;;20.89;100.00;101744.97;7394059;19;20023;-50
2022/07/23 03:45:17;;;;;;;6.20;3.28;;;;;;;20.89;100.00;101744.97;7392597;19;20019;-52
2022/07/23 03:47:49;;;;;;;4.20;2.92;;;;;;;20.83;100.00;101753.44;7393256;19;20022;-51
2022/07/23 03:50:18;;;;;;;7.07;2.88;;;;;;;20.76;99.96;101759.28;7393292;19;20014;-51
2022/07/23 03:52:47;;;;;;;6.85;3.30;;;;;;;20.76;99.12;101759.28;7396881;19;20037;-50
2022/07/23 03:55:16;;;;;;;5.53;3.47;;;;;;;20.68;98.06;101759.88;7393230;19;20368;-51
2022/07/23 03:57:45;;;;;;;7.75;3.10;;;;;;;20.62;98.57;101754.94;7397344;19;20015;-50
2022/07/23 04:00:15;;;;;;;4.90;3.15;;;;;;;20.52;98.68;101766.25;7391928;19;20074;-53
2022/07/23 04:02:46;;;;;;;5.07;3.00;;;;;;;20.64;100.00;101761.84;7393940;19;20479;-53
2022/07/23 04:05:18;;;;;;;3.95;3.20;;;;;;;20.71;100.00;101762.31;7393720;19;20014;-50
2022/07/23 04:07:50;;;;;;;5.07;3.22;;;;;;;20.80;98.57;101766.09;7395715;19;20123;-52
2022/07/23 04:10:20;;;;;;;5.97;3.20;;;;;;;20.79;99.03;101769.72;7390489;19;20477;-53
2022/07/23 04:12:52;;;;;;;5.32;3.25;;;;;;;20.80;98.05;101760.78;7394340;19;20021;-51
2022/07/23 04:15:21;;;;;;;7.32;3.40;;;;;;;20.72;98.57;101759.53;7392476;19;20014;-55
2022/07/23 04:17:50;;;;;;;8.18;3.50;;;;;;;20.80;99.12;101766.09;7395235;19;20376;-51
2022/07/23 04:20:24;;;;;;;5.75;3.00;;;;;;;20.72;98.73;101756.03;7395427;19;20022;-53
2022/07/23 04:22:58;;;;;;;6.05;3.50;;;;;;;20.78;100.00;101760.91;7396656;19;20026;-51
2022/07/23 04:25:27;;;;;;;4.95;2.85;;;;;;;20.85;100.00;101748.00;7390638;19;20470;-50
2022/07/23 04:27:56;;;;;;;5.30;3.13;;;;;;;20.81;100.00;101746.50;7396320;19;20018;-51
2022/07/23 04:30:25;;;;;;;5.70;3.28;;;;;;;20.84;100.00;101752.44;7395279;19;20018;-54
2022/07/23 04:32:55;;;;;;;6.43;3.20;;;;;;;20.83;100.00;101749.91;7404993;19;20022;-53
2022/07/23 04:35:31;;;;;;;5.65;2.95;;;;;;;20.81;100.00;101751.84;7403876;19;20015;-51
2022/07/23 04:38:11;;;;;;;5.68;3.50;;;;;;;20.80;100.00;101761.63;7406383;19;20026;-50
2022/07/23 04:40:40;;;;;;;12.27;7.40;;;;;;;20.79;100.00;101764.41;7397088;19;20019;-51
2022/07/23 04:43:09;;;;;;;7.53;4.65;;;;;;;20.84;100.00;101767.59;7392303;19;20018;-51
2022/07/23 04:45:44;;;;;;;6.00;3.53;;;;;;;20.80;99.35;101761.63;7393649;19;20044;-53
2022/07/23 04:48:13;;;;;;;6.88;3.28;;;;;;;20.70;99.37;101758.78;7393990;19;20022;-55
2022/07/23 04:50:45;;;;;;;5.88;3.15;;;;;;;20.82;100.00;101769.50;7393672;19;20030;-49
2022/07/23 04:53:25;;;;;;;5.72;2.85;;;;;;;20.90;100.00;101760.00;7396537;19;20356;-50
2022/07/23 04:55:57;;;;;;;6.80;3.00;;;;;;;20.96;98.89;101766.69;7390150;19;20360;-49
2022/07/23 04:58:26;;;;;;;5.57;2.90;;;;;;;21.00;100.00;101768.16;7393618;19;20025;-52
2022/07/23 05:00:57;;;;;;;7.38;3.45;;;;;;;21.07;100.00;101761.41;7393604;19;20015;-51
2022/07/23 05:03:26;;;;;;;6.18;3.08;;;;;;;21.12;100.00;101758.41;7395058;19;20438;-55
2022/07/23 05:05:58;;;;;;;4.03;2.80;;;;;;;21.13;100.00;101757.44;7392030;19;20033;-51
2022/07/23 05:08:27;;;;;;;7.90;3.00;;;;;;;21.22;100.00;101762.09;7395256;19;20077;-48
2022/07/23 05:10:59;;;;;;;3.55;2.92;;;;;;;21.21;100.00;101757.72;7393916;19;20487;-49
2022/07/23 05:13:27;;;;;;;3.92;2.75;;;;;;;21.26;100.00;101754.72;7394711;19;20025;-51
2022/07/23 05:15:56;;;;;;;6.78;3.00;;;;;;;21.31;100.00;101765.88;7392620;19;20030;-54
2022/07/23 05:18:26;;;;;;;4.43;2.67;;;;;;;21.33;98.81;101763.94;7389538;19;20023;-52
2022/07/23 05:20:58;;;;;;;6.68;3.50;;;;;;;21.34;99.44;101754.16;7390253;19;20014;-53
2022/07/23 05:23:27;;;;;;;5.88;2.70;;;;;;;21.31;96.26;101768.56;7392078;19;20029;-51
2022/07/23 05:25:56;;;;;;;5.65;2.10;;;;;;;21.28;96.85;101782.13;7389350;19;20013;-50
2022/07/23 05:28:26;;;;;;;4.57;2.60;;;;;;;21.35;98.02;101787.81;7389729;19;20042;-54
2022/07/23 05:30:56;;;;;;;5.15;2.47;;;;;;;21.51;97.51;101788.41;7392251;19;20019;-49
2022/07/23 05:33:26;;;;;;;5.47;2.33;;;;;;;21.61;97.31;101788.59;7393321;19;20424;-55
2022/07/23 05:35:55;;;;;;;5.43;2.42;;;;;;;21.65;96.96;101798.06;7390186;19;20010;-54
2022/07/23 05:38:34;;;;;;;3.95;2.20;;;;;;;21.68;97.21;101800.47;7388486;19;20404;-51
2022/07/23 05:41:05;;;;;;;7.25;2.53;;;;;;;21.86;95.41;101802.72;7389394;19;20602;-51
2022/07/23 05:43:34;;;;;;;4.97;2.22;;;;;;;21.83;94.84;101802.94;7389906;19;20037;-52
2022/07/23 05:46:09;;;;;;;5.32;2.35;;;;;;;21.83;94.43;101801.13;7390074;19;20021;-53
2022/07/23 05:48:41;;;;;;;6.95;2.63;;;;;;;21.86;96.13;101808.03;7390195;19;20046;-54
2022/07/23 05:51:16;;;;;;;3.65;2.10;;;;;;;21.84;93.45;101810.00;7388933;19;20126;-53
2022/07/23 05:53:47;;;;;;;4.13;1.80;;;;;;;21.77;93.04;101806.94;7391417;19;20356;-55
2022/07/23 05:56:21;;;;;;;5.15;2.10;;;;;;;21.72;91.68;101817.09;7389313;19;20030;-55
2022/07/23 05:58:50;;;;;;;4.28;2.03;;;;;;;21.79;93.15;101813.00;7389584;19;20380;-52
2022/07/23 06:01:20;;;;;;;4.05;2.05;;;;;;;21.77;89.71;101821.13;7391234;19;20042;-53
2022/07/23 06:04:02;;;;;;;4.45;2.15;;;;;;;21.80;90.34;101813.84;7391985;19;20101;-53
2022/07/23 06:06:37;;;;;;;19.50;3.03;;;;;;;21.74;91.24;101820.50;7390241;19;20083;-50
2022/07/23 06:09:10;;;;;;;5.15;2.03;;;;;;;21.77;91.79;101828.28;7390315;19;20034;-53
2022/07/23 06:11:40;;;;;;;6.57;2.17;;;;;;;21.81;91.64;101815.53;7392673;19;20023;-53
2022/07/23 06:14:09;;;;;;;5.13;2.30;;;;;;;21.92;90.52;101819.09;7391532;19;20018;-52
2022/07/23 06:16:51;;;;;;;4.72;2.55;;;;;;;21.96;89.18;101819.72;7389917;19;20433;-50
2022/07/23 06:19:20;;;;;;;3.38;2.00;;;;;;;21.94;88.37;101822.50;7364234;19;20014;-49
2022/07/23 06:21:49;;;;;;;4.43;2.40;;;;;;;22.05;90.53;101824.34;7390358;19;20015;-53
2022/07/23 06:24:22;;;;;;;3.88;2.47;;;;;;;22.04;87.70;101811.97;7387754;19;20014;-50
2022/07/23 06:26:52;;;;;;;8.25;2.85;;;;;;;22.18;89.05;101818.91;7391156;19;20019;-49
2022/07/23 06:29:21;;;;;;;4.60;2.50;;;;;;;22.26;90.25;101820.97;7389945;19;20018;-49
2022/07/23 06:31:50;;;;;;;5.15;2.38;;;;;;;22.27;90.54;101826.19;7391739;19;20495;-52
2022/07/23 06:34:19;;;;;;;5.82;3.03;;;;;;;22.08;87.41;101824.09;7398583;19;20471;-53
2022/07/23 06:36:48;;;;;;;4.80;3.00;;;;;;;22.19;89.89;101825.09;7399294;19;20010;-51
2022/07/23 06:39:17;;;;;;;6.10;3.10;;;;;;;22.33;90.53;101826.72;7396503;19;20018;-49
2022/07/23 06:41:53;;;;;;;6.93;2.97;;;;;;;22.15;83.95;101826.28;7398358;19;20096;-55
2022/07/23 06:44:22;;;;;;;4.30;2.60;;;;;;;22.29;86.22;101828.75;7399557;19;20018;-53
2022/07/23 06:46:51;;;;;;;3.30;2.63;;;;;;;22.32;85.98;101838.34;7396739;19;20023;-50
2022/07/23 06:49:21;;;;;;;3.47;2.38;;;;;;;22.32;84.79;101838.34;7392401;19;20010;-49
2022/07/23 06:51:49;;;;;;;5.13;2.33;;;;;;;22.27;84.41;101842.22;7395770;19;20038;-52
2022/07/23 06:54:18;;;;;;;4.18;2.58;;;;;;;22.27;84.60;101844.88;7396427;19;20014;-54
2022/07/23 06:56:48;;;;;;;4.38;2.70;;;;;;;22.37;85.29;101850.38;7398959;19;20468;-50
2022/07/23 06:59:20;;;;;;;8.23;2.70;;;;;;;21.92;86.88;101848.47;7395750;19;20085;-52
2022/07/23 07:01:49;;;;;;;5.25;2.45;;;;;;;22.03;84.44;101844.13;7397646;19;20488;-50
2022/07/23 07:04:18;;;;;;;4.88;2.45;;;;;;;21.98;84.08;101838.28;7398956;19;20018;-51
2022/07/23 07:06:47;;;;;;;4.68;2.40;;;;;;;21.80;83.41;101846.72;7396485;19;20422;-54
2022/07/23 07:09:16;;;;;;;4.38;2.65;;;;;;;22.14;83.04;101852.16;7393466;19;20014;-49
2022/07/23 07:11:45;;;;;;;6.60;2.70;;;;;;;21.95;87.24;101852.72;7395753;19;20014;-50
2022/07/23 07:14:14;;;;;;;4.38;2.80;;;;;;;21.54;86.76;101854.03;7396915;19;20447;-50
2022/07/23 07:16:45;;;;;;;9.90;3.03;;;;;;;22.12;87.47;101844.25;7397712;19;20014;-55
2022/07/23 07:19:14;;;;;;;6.63;2.90;;;;;;;22.33;79.36;101848.09;7396180;19;20015;-54
2022/07/23 07:21:43;;;;;;;4.30;2.67;;;;;;;22.54;82.67;101849.06;7396170;19;20009;-50
2022/07/23 07:24:12;;;;;;;5.38;2.58;;;;;;;22.57;81.35;101843.47;7396659;19;20022;-54
2022/07/23 07:26:41;;;;;;;5.95;2.60;;;;;;;22.57;84.87;101850.66;7393598;19;20011;-49
2022/07/23 07:29:10;;;;;;;6.00;3.03;;;;;;;22.75;80.43;101848.31;7393220;19;20039;-50
2022/07/23 07:31:39;;;;;;;4.53;2.42;;;;;;;22.92;80.39;101846.97;7396246;19;20019;-51
2022/07/23 07:34:10;;;;;;;5.60;2.45;;;;;;;23.02;79.23;101845.25;7395395;19;20570;-51
2022/07/23 07:36:39;;;;;;;4.63;2.60;;;;;;;22.99;78.30;101846.34;7396338;19;20471;-52
2022/07/23 07:39:10;;;;;;;6.50;2.80;;;;;;;23.12;80.58;101851.56;7395267;19;20018;-51
2022/07/23 07:41:39;;;;;;;5.53;2.90;;;;;;;23.16;77.76;101849.53;7394087;19;20474;-50
2022/07/23 07:44:08;;;;;;;7.40;2.80;;;;;;;23.19;78.78;101851.94;7393325;19;20015;-50
2022/07/23 07:46:37;;;;;;;4.82;2.30;;;;;;;23.24;77.57;101854.22;7394352;19;20387;-53
2022/07/23 07:49:05;;;;;;;3.75;2.60;;;;;;;23.30;76.49;101853.75;7395905;19;20017;-49
2022/07/23 07:51:37;;;;;;;6.60;2.63;;;;;;;23.36;75.82;101852.41;7394984;19;20011;-58
2022/07/23 07:54:06;;;;;;;3.50;2.65;;;;;;;22.77;71.78;101863.28;7395032;19;20514;-51
2022/07/23 07:56:35;;;;;;;6.90;2.55;;;;;;;22.66;71.70;101867.78;7398358;19;20022;-51
2022/07/23 07:59:04;;;;;;;4.63;2.63;;;;;;;22.62;73.56;101869.81;7390224;19;20018;-51
2022/07/23 08:01:33;;;;;;;5.65;2.35;;;;;;;22.99;76.89;101873.06;7396636;19;20011;-55
2022/07/23 08:04:01;;;;;;;2.90;2.22;;;;;;;23.20;75.85;101880.38;7395173;19;20010;-53
2022/07/23 08:06:30;;;;;;;6.80;2.72;;;;;;;23.40;75.80;101877.91;7393171;19;20014;-47
2022/07/23 08:09:02;;;;;;;6.32;2.47;;;;;;;23.52;74.53;101876.88;7395127;19;20023;-50
2022/07/23 08:11:31;;;;;;;6.32;2.40;;;;;;;23.42;69.89;101881.31;7395079;19;20019;-54
2022/07/23 08:14:00;;;;;;;6.00;2.38;;;;;;;23.14;71.81;101881.72;7397867;19;20014;-50
2022/07/23 08:16:29;;;;;;;4.15;2.30;;;;;;;23.55;75.66;101884.66;7393930;19;20010;-50
2022/07/23 08:18:57;;;;;;;4.72;2.50;;;;;;;23.67;74.47;101877.47;7393560;19;20026;-58
2022/07/23 08:21:26;;;;;;;3.47;2.40;;;;;;;23.30;74.23;101878.66;7396287;19;20010;-58
2022/07/23 08:23:55;;;;;;;5.32;2.25;;;;;;;23.61;73.63;101880.63;7398252;19;20011;-54
2022/07/23 08:26:27;;;;;;;3.33;2.40;;;;;;;23.84;74.77;101878.69;7397284;19;20038;-58
2022/07/23 08:28:55;;;;;;;4.65;2.22;;;;;;;24.05;69.32;101886.78;7398042;19;20018;-54
2022/07/23 08:31:24;;;;;;;3.03;2.17;;;;;;;23.61;70.47;101889.53;7394553;19;20083;-55
2022/07/23 08:33:54;;;;;;;6.90;2.28;;;;;;;23.65;68.65;101892.78;7395488;19;20129;-55
2022/07/23 08:36:23;;;;;;;4.90;2.67;;;;;;;22.91;71.72;101890.72;7394372;19;20014;-56
2022/07/23 08:38:52;;;;;;;7.10;2.30;;;;;;;23.04;72.51;101886.09;7395537;19;20022;-56
2022/07/23 08:41:22;;;;;;;5.63;2.90;;;;;;;23.35;75.23;101877.44;7394346;19;20018;-59
2022/07/23 08:43:54;;;;;;;6.55;2.58;;;;;;;23.53;68.74;101885.75;7397286;19;20010;-56
2022/07/23 08:46:23;;;;;;;3.47;2.20;;;;;;;23.59;69.97;101896.81;7393674;19;20015;-56
2022/07/23 08:48:54;;;;;;;3.22;2.22;;;;;;;23.80;70.32;101896.00;7393190;19;20041;-55
2022/07/23 08:51:23;;;;;;;4.10;2.47;;;;;;;23.53;69.40;101896.44;7396915;19;20134;-57
2022/07/23 08:53:52;;;;;;;6.20;2.33;;;;;;;23.09;69.56;101891.06;7393206;19;20025;-53
2022/07/23 08:56:21;;;;;;;3.10;2.10;;;;;;;23.17;66.94;101890.47;7392716;19;20014;-58
2022/07/23 08:58:50;;;;;;;3.65;2.40;;;;;;;23.30;68.15;101894.69;7391984;19;20018;-59
2022/07/23 09:01:22;;;;;;;3.97;2.33;;;;;;;23.23;70.66;101890.81;7394094;19;20086;-55
2022/07/23 09:03:51;;;;;;;6.28;2.45;;;;;;;23.79;70.96;101888.94;7395772;19;20025;-54
2022/07/23 09:06:20;;;;;;;4.70;2.45;;;;;;;24.12;70.70;101887.94;7393058;19;20015;-52
2022/07/23 09:08:48;;;;;;;6.32;2.75;;;;;;;24.04;67.08;101893.09;7394029;19;20022;-58
2022/07/23 09:11:19;;;;;;;4.18;2.20;;;;;;;24.42;69.49;101888.16;7395869;19;20023;-57
2022/07/23 09:13:49;;;;;;;4.22;2.72;;;;;;;24.55;65.64;101888.75;7391907;19;20010;-57
2022/07/23 09:16:25;;;;;;;8.15;2.88;;;;;;;24.65;67.18;101886.16;7396607;19;20014;-56
2022/07/23 09:18:56;;;;;;;3.17;2.22;;;;;;;24.70;63.47;101894.63;7390931;19;20034;-55
2022/07/23 09:21:28;;;;;;;5.72;3.38;;;;;;;24.84;64.51;101886.22;7394102;19;20010;-57
2022/07/23 09:24:00;;;;;;;2.92;1.95;;;;;;;24.97;65.20;101887.81;7395054;19;20476;-55
2022/07/23 09:26:32;;;;;;;5.05;2.58;;;;;;;25.17;65.74;101886.03;7395134;19;20006;-56
2022/07/23 09:29:06;;;;;;;3.92;2.40;;;;;;;25.08;61.75;101890.41;7393424;19;20014;-54
2022/07/23 09:31:46;;;;;;;3.90;2.00;;;;;;;25.02;63.79;101888.28;7395306;19;20345;-57
2022/07/23 09:34:18;;;;;;;5.85;2.40;;;;;;;24.53;63.20;101885.38;7395094;19;20351;-56
2022/07/23 09:36:49;;;;;;;3.90;2.78;;;;;;;24.55;63.39;101885.25;7396221;19;20015;-57
2022/07/23 09:39:26;;;;;;;5.72;2.45;;;;;;;24.30;60.38;101890.91;7392269;19;20019;-51
2022/07/23 09:41:55;;;;;;;4.70;2.28;;;;;;;24.82;64.02;101892.72;7394018;19;20030;-52
2022/07/23 09:44:24;;;;;;;3.42;2.10;;;;;;;24.56;58.01;101894.97;7394007;19;20361;-52
2022/07/23 09:47:01;;;;;;;2.75;2.00;;;;;;;24.58;54.51;101885.81;7388604;19;20025;-56
2022/07/23 09:49:31;;;;;;;4.93;1.95;;;;;;;23.87;55.41;101893.69;7391936;19;20027;-54
2022/07/23 09:52:02;;;;;;;2.63;1.88;;;;;;;24.26;60.08;101893.97;7389475;19;20018;-56
2022/07/23 09:54:34;;;;;;;5.97;2.43;;;;;;;24.19;59.63;101894.47;7396321;19;20010;-56
2022/07/23 09:57:09;;;;;;;4.35;3.22;;;;;;;23.94;63.22;101886.84;7396136;19;20086;-55
2022/07/23 09:59:40;;;;;;;3.47;2.53;;;;;;;24.59;64.45;101889.34;7400073;19;20015;-54
2022/07/23 10:02:14;;;;;;;5.35;2.60;;;;;;;24.82;59.99;101890.06;7398524;19;20045;-52
2022/07/23 10:05:12;;;;;;;5.75;2.50;;;;;;;25.31;60.85;101887.50;7393073;19;20022;-53
2022/07/23 10:08:20;;;;;;;3.25;2.50;;;;;;;24.52;57.91;101889.88;7393618;19;20034;-52
2022/07/23 10:11:09;;;;;;;5.75;2.67;;;;;;;24.52;57.73;101889.03;7403835;19;20406;-55
2022/07/23 10:13:58;;;;;;;5.45;3.05;;;;;;;25.23;61.94;101882.81;7406685;19;20019;-54
2022/07/23 10:16:41;;;;;;;5.72;2.95;;;;;;;25.52;60.99;101880.19;7355872;19;20014;-55
2022/07/23 10:19:13;;;;;;;3.80;2.60;;;;;;;25.42;58.77;101876.66;7402846;19;20010;-52
2022/07/23 10:21:47;;;;;;;6.40;2.22;;;;;;;25.83;60.78;101873.84;7400622;19;20015;-55
2022/07/23 10:24:26;;;;;;;8.05;2.35;;;;;;;26.20;56.71;101882.00;7403072;19;20011;-56
2022/07/23 10:27:07;;;;;;;2.35;1.90;;;;;;;26.32;55.41;101879.16;7402269;19;20015;-56
2022/07/23 10:29:50;;;;;;;14.60;3.28;;;;;;;26.39;52.92;101874.88;7398965;19;20029;-57
2022/07/23 10:32:23;;;;;;;;;;;;;;;26.49;55.23;101878.38;7352486;19;20010;-54
2022/07/23 10:34:57;;;;;;;;;;;;;;;26.35;55.44;101876.16;7400908;19;19923;-52
2022/07/23 10:37:35;;;;;;;4.30;2.50;;;;;;;25.94;52.38;101875.53;7395259;19;19922;-52
2022/07/23 10:40:18;;;;;;;4.35;2.50;;;;;;;25.87;55.63;101877.94;7398374;19;20659;-50
2022/07/23 10:42:48;;;;;;;5.78;2.85;;;;;;;25.89;57.22;101874.13;7400731;19;20014;-53
2022/07/23 10:45:32;;;;;;;6.53;2.80;;;;;;;26.46;54.19;101873.31;7395795;19;20007;-56
2022/07/23 10:48:19;;;;;;;5.38;2.70;;;;;;;26.79;53.80;101876.44;7398541;19;20014;-57
2022/07/23 10:51:13;;;;;;;4.05;3.13;;;;;;;25.96;52.99;101874.38;7397121;19;20493;-54
2022/07/23 10:53:58;;;;;;;6.57;3.33;;;;;;;26.36;52.33;101867.13;7397188;19;20034;-53
2022/07/23 10:56:52;;;;;;;4.22;2.80;;;;;;;26.00;50.02;101872.25;7394934;19;20349;-57
2022/07/23 10:59:21;;;;;;;4.13;2.80;;;;;;;26.38;53.33;101870.53;7394555;19;20010;-58
2022/07/23 11:01:50;;;;;;;4.50;2.55;;;;;;;26.60;53.97;101867.44;7397755;19;20014;-55
2022/07/23 11:04:19;;;;;;;3.90;2.45;;;;;;;26.99;52.84;101873.66;7398361;19;20018;-57
2022/07/23 11:07:14;;;;;;;7.10;3.00;;;;;;;27.38;50.93;101868.91;7393557;19;20015;-55
2022/07/23 11:09:44;;;;;;;4.60;2.70;;;;;;;27.35;46.26;101871.06;7394873;19;20067;-54
2022/07/23 11:12:35;;;;;;;4.20;3.15;;;;;;;27.25;46.82;101877.34;7397071;19;20102;-56
2022/07/23 11:15:07;;;;;;;4.15;3.42;;;;;;;27.43;47.91;101877.34;7395245;19;20044;-53
2022/07/23 11:17:38;;;;;;;4.82;2.95;;;;;;;27.26;44.36;101870.94;7395369;19;20015;-53
2022/07/23 11:20:19;;;;;;;5.55;3.17;;;;;;;27.10;44.64;101868.91;7396990;19;20011;-56
2022/07/23 11:22:58;;;;;;;4.35;2.42;;;;;;;26.90;46.64;101868.19;7395788;19;20360;-54
2022/07/23 11:25:37;;;;;;;3.65;2.60;;;;;;;26.58;47.41;101866.75;7394287;19;20015;-57
2022/07/23 11:28:14;;;;;;;4.45;2.42;;;;;;;26.80;45.51;101867.41;7392030;19;20030;-54
2022/07/23 11:30:45;;;;;;;3.70;2.58;;;;;;;26.73;45.86;101877.88;7397823;19;20017;-55
2022/07/23 11:33:24;;;;;;;3.45;2.40;;;;;;;27.71;46.58;101876.44;7398941;19;20022;-56
2022/07/23 11:36:04;;;;;;;3.33;2.50;;;;;;;27.86;45.70;101871.34;7395552;19;20022;-56
2022/07/23 11:38:37;;;;;;;5.13;2.83;;;;;;;28.38;42.49;101875.94;7394744;19;20018;-55
2022/07/23 11:41:07;;;;;;;3.78;2.63;;;;;;;29.04;43.21;101874.38;7394804;19;20026;-56